PWSweather.com
Personal Weather Stations
Station Observations
SHAHALMS1
Eftra, Falkenberg, HA

EftraFalkenberg, HA

Lat: 56.85, Lon: 12.65

Elevation: 140

Station Type:

http://hem.passagen.se/risarp101

High Low Average
Temperature 38.7°F3.7°C 29.8°F-1.2°C 34.1°F1.2°C
Dew Point 25.6°F-3.6°C 21.6°F-5.8°C 23.5°F-4.7°C
Winds 12.4 mph 20.0 kmh 0.2 mph 0.3 kmh 7.0 mph E11.3 kmh E
Wind Gusts 24.7 mph39.8 kmh 2.5 mph4.0 kmh 12.0 mph19.3 kmh
Humidity 71% 58% 65%
Pressure 29.65 in1004.1 mb 29.53 in1000.0 mb -
Precipitation 0.00 in0.0 mm - -
Hour Temp Dew Point Humidity Winds Wind Gusts Pressure Precip Precip Rate Daily Precip Total
12:00 AM 33.8°F1.0°C 23.3°F-4.8°C 65% 6.2 mph ENE10.0 kmh ENE 11.5 mph18.5 kmh 29.62 in1003.0 mb 0.00 in0.0 mm 0.00 in0.0 mm 0.00 in0.0 mm
12:15 AM 33.6°F0.9°C 23.1°F-4.9°C 65% 5.9 mph ENE9.5 kmh ENE 11.5 mph18.5 kmh 29.62 in1003.0 mb 0.00 in0.0 mm 0.00 in0.0 mm 0.00 in0.0 mm
12:30 AM 33.6°F0.9°C 23.5°F-4.7°C 66% 5.0 mph NE8.0 kmh NE 8.6 mph13.8 kmh 29.62 in1003.0 mb 0.00 in0.0 mm 0.00 in0.0 mm 0.00 in0.0 mm
12:45 AM 33.6°F0.9°C 23.5°F-4.7°C 66% 5.9 mph NE9.5 kmh NE 9.7 mph15.6 kmh 29.62 in1003.0 mb 0.00 in0.0 mm 0.00 in0.0 mm 0.00 in0.0 mm
01:00 AM 33.6°F0.9°C 23.5°F-4.7°C 66% 5.9 mph NE9.5 kmh NE 10.7 mph17.2 kmh 29.59 in1002.0 mb 0.00 in0.0 mm 0.00 in0.0 mm 0.00 in0.0 mm
01:15 AM 33.6°F0.9°C 23.5°F-4.7°C 66% 3.0 mph NE4.8 kmh NE 10.0 mph16.1 kmh 29.59 in1002.0 mb 0.00 in0.0 mm 0.00 in0.0 mm 0.00 in0.0 mm
01:30 AM 33.4°F0.8°C 23.3°F-4.8°C 66% 3.8 mph NE6.1 kmh NE 7.9 mph12.7 kmh 29.59 in1002.0 mb 0.00 in0.0 mm 0.00 in0.0 mm 0.00 in0.0 mm
01:45 AM 33.4°F0.8°C 23.3°F-4.8°C 66% 3.1 mph NE5.0 kmh NE 7.9 mph12.7 kmh 29.59 in1002.0 mb 0.00 in0.0 mm 0.00 in0.0 mm 0.00 in0.0 mm
02:00 AM 33.4°F0.8°C 23.7°F-4.6°C 67% 3.2 mph NNE5.1 kmh NNE 8.9 mph14.3 kmh 29.59 in1002.0 mb 0.00 in0.0 mm 0.00 in0.0 mm 0.00 in0.0 mm
02:15 AM 33.3°F0.7°C 23.5°F-4.7°C 67% 4.5 mph NNE7.2 kmh NNE 10.0 mph16.1 kmh 29.59 in1002.0 mb 0.00 in0.0 mm 0.00 in0.0 mm 0.00 in0.0 mm
02:30 AM 33.3°F0.7°C 23.8°F-4.6°C 68% 2.8 mph NNE4.5 kmh NNE 7.5 mph12.1 kmh 29.59 in1002.0 mb 0.00 in0.0 mm 0.00 in0.0 mm 0.00 in0.0 mm
02:45 AM 33.1°F0.6°C 23.7°F-4.6°C 68% 4.6 mph NNE7.4 kmh NNE 8.9 mph14.3 kmh 29.59 in1002.0 mb 0.00 in0.0 mm 0.00 in0.0 mm 0.00 in0.0 mm
03:00 AM 33.1°F0.6°C 24.0°F-4.4°C 69% 5.2 mph N8.4 kmh N 10.4 mph16.7 kmh 29.59 in1002.0 mb 0.00 in0.0 mm 0.00 in0.0 mm 0.00 in0.0 mm
03:15 AM 32.9°F0.5°C 23.8°F-4.6°C 69% 5.6 mph N9.0 kmh N 9.7 mph15.6 kmh 29.56 in1001.0 mb 0.00 in0.0 mm 0.00 in0.0 mm 0.00 in0.0 mm
03:30 AM 32.9°F0.5°C 23.8°F-4.6°C 69% 7.0 mph N11.3 kmh N 12.9 mph20.8 kmh 29.56 in1001.0 mb 0.00 in0.0 mm 0.00 in0.0 mm 0.00 in0.0 mm
03:45 AM 32.9°F0.5°C 23.8°F-4.6°C 69% 6.8 mph N10.9 kmh N 13.6 mph21.9 kmh 29.56 in1001.0 mb 0.00 in0.0 mm 0.00 in0.0 mm 0.00 in0.0 mm
04:00 AM 32.9°F0.5°C 23.8°F-4.6°C 69% 5.7 mph N9.2 kmh N 12.9 mph20.8 kmh 29.56 in1001.0 mb 0.00 in0.0 mm 0.00 in0.0 mm 0.00 in0.0 mm
04:15 AM 32.7°F0.4°C 24.0°F-4.4°C 70% 6.8 mph N10.9 kmh N 12.2 mph19.6 kmh 29.56 in1001.0 mb 0.00 in0.0 mm 0.00 in0.0 mm 0.00 in0.0 mm
04:30 AM 32.7°F0.4°C 24.0°F-4.4°C 70% 6.0 mph N9.7 kmh N 13.6 mph21.9 kmh 29.56 in1001.0 mb 0.00 in0.0 mm 0.00 in0.0 mm 0.00 in0.0 mm
04:45 AM 32.5°F0.3°C 23.8°F-4.6°C 70% 7.1 mph N11.4 kmh N 12.9 mph20.8 kmh 29.53 in1000.0 mb 0.00 in0.0 mm 0.00 in0.0 mm 0.00 in0.0 mm
05:00 AM 32.5°F0.3°C 23.8°F-4.6°C 70% 6.8 mph N10.9 kmh N 11.5 mph18.5 kmh 29.53 in1000.0 mb 0.00 in0.0 mm 0.00 in0.0 mm 0.00 in0.0 mm
05:15 AM 32.5°F0.3°C 23.8°F-4.6°C 70% 7.4 mph N11.9 kmh N 12.5 mph20.1 kmh 29.56 in1001.0 mb 0.00 in0.0 mm 0.00 in0.0 mm 0.00 in0.0 mm
05:30 AM 32.5°F0.3°C 23.8°F-4.6°C 70% 6.4 mph N10.3 kmh N 10.4 mph16.7 kmh 29.56 in1001.0 mb 0.00 in0.0 mm 0.00 in0.0 mm 0.00 in0.0 mm
05:45 AM 32.5°F0.3°C 23.8°F-4.6°C 70% 7.3 mph N11.7 kmh N 11.8 mph19.0 kmh 29.56 in1001.0 mb 0.00 in0.0 mm 0.00 in0.0 mm 0.00 in0.0 mm
06:00 AM 32.5°F0.3°C 23.8°F-4.6°C 70% 7.2 mph N11.6 kmh N 12.9 mph20.8 kmh 29.53 in1000.0 mb 0.00 in0.0 mm 0.00 in0.0 mm 0.00 in0.0 mm
06:15 AM 32.5°F0.3°C 23.8°F-4.6°C 70% 8.6 mph N13.8 kmh N 13.6 mph21.9 kmh 29.56 in1001.0 mb 0.00 in0.0 mm 0.00 in0.0 mm 0.00 in0.0 mm
06:30 AM 32.5°F0.3°C 23.8°F-4.6°C 70% 5.7 mph NE9.2 kmh NE 9.7 mph15.6 kmh 29.53 in1000.0 mb 0.00 in0.0 mm 0.00 in0.0 mm 0.00 in0.0 mm
06:45 AM 32.7°F0.4°C 23.7°F-4.6°C 69% 5.5 mph N8.9 kmh N 12.2 mph19.6 kmh 29.53 in1000.0 mb 0.00 in0.0 mm 0.00 in0.0 mm 0.00 in0.0 mm
07:00 AM 32.9°F0.5°C 23.8°F-4.6°C 69% 4.0 mph NE6.4 kmh NE 8.9 mph14.3 kmh 29.53 in1000.0 mb 0.00 in0.0 mm 0.00 in0.0 mm 0.00 in0.0 mm
07:15 AM 32.9°F0.5°C 23.1°F-4.9°C 67% 7.7 mph NE12.4 kmh NE 13.6 mph21.9 kmh 29.53 in1000.0 mb 0.00 in0.0 mm 0.00 in0.0 mm 0.00 in0.0 mm
07:30 AM 33.1°F0.6°C 23.3°F-4.8°C 67% 6.1 mph NNE9.8 kmh NNE 14.0 mph22.5 kmh 29.53 in1000.0 mb 0.00 in0.0 mm 0.00 in0.0 mm 0.00 in0.0 mm
07:45 AM 33.1°F0.6°C 22.9°F-5.1°C 66% 6.5 mph NNE10.5 kmh NNE 10.4 mph16.7 kmh 29.56 in1001.0 mb 0.00 in0.0 mm 0.00 in0.0 mm 0.00 in0.0 mm
08:00 AM 33.3°F0.7°C 23.1°F-4.9°C 66% 5.3 mph NNE8.5 kmh NNE 12.5 mph20.1 kmh 29.56 in1001.0 mb 0.00 in0.0 mm 0.00 in0.0 mm 0.00 in0.0 mm
08:15 AM 33.3°F0.7°C 23.1°F-4.9°C 66% 5.7 mph NNE9.2 kmh NNE 11.5 mph18.5 kmh 29.56 in1001.0 mb 0.00 in0.0 mm 0.00 in0.0 mm 0.00 in0.0 mm
08:30 AM 33.4°F0.8°C 23.3°F-4.8°C 66% 6.6 mph NE10.6 kmh NE 12.5 mph20.1 kmh 29.56 in1001.0 mb 0.00 in0.0 mm 0.00 in0.0 mm 0.00 in0.0 mm
08:45 AM 33.4°F0.8°C 22.9°F-5.1°C 65% 8.0 mph NNE12.9 kmh NNE 16.8 mph27.0 kmh 29.53 in1000.0 mb 0.00 in0.0 mm 0.00 in0.0 mm 0.00 in0.0 mm
09:00 AM 33.8°F1.0°C 23.3°F-4.8°C 65% 7.3 mph NE11.7 kmh NE 12.9 mph20.8 kmh 29.56 in1001.0 mb 0.00 in0.0 mm 0.00 in0.0 mm 0.00 in0.0 mm
09:15 AM 34.0°F1.1°C 23.1°F-4.9°C 64% 8.8 mph NNE14.2 kmh NNE 14.0 mph22.5 kmh 29.56 in1001.0 mb 0.00 in0.0 mm 0.00 in0.0 mm 0.00 in0.0 mm
09:30 AM 34.5°F1.4°C 23.6°F-4.7°C 64% 8.9 mph NE14.3 kmh NE 12.9 mph20.8 kmh 29.56 in1001.0 mb 0.00 in0.0 mm 0.00 in0.0 mm 0.00 in0.0 mm
09:45 AM 34.9°F1.6°C 23.6°F-4.7°C 63% 9.0 mph NE14.5 kmh NE 13.6 mph21.9 kmh 29.56 in1001.0 mb 0.00 in0.0 mm 0.00 in0.0 mm 0.00 in0.0 mm
10:00 AM 35.2°F1.8°C 23.9°F-4.5°C 63% 9.3 mph NNE15.0 kmh NNE 17.9 mph28.8 kmh 29.56 in1001.0 mb 0.00 in0.0 mm 0.00 in0.0 mm 0.00 in0.0 mm
10:15 AM 35.4°F1.9°C 23.7°F-4.6°C 62% 8.6 mph NNE13.8 kmh NNE 16.5 mph26.6 kmh 29.53 in1000.0 mb 0.00 in0.0 mm 0.00 in0.0 mm 0.00 in0.0 mm
10:30 AM 35.8°F2.1°C 24.0°F-4.4°C 62% 7.9 mph NNE12.7 kmh NNE 14.0 mph22.5 kmh 29.56 in1001.0 mb 0.00 in0.0 mm 0.00 in0.0 mm 0.00 in0.0 mm
10:45 AM 36.1°F2.3°C 24.0°F-4.4°C 61% 9.6 mph NE15.4 kmh NE 16.1 mph25.9 kmh 29.56 in1001.0 mb 0.00 in0.0 mm 0.00 in0.0 mm 0.00 in0.0 mm
11:00 AM 36.3°F2.4°C 24.1°F-4.4°C 61% 9.1 mph NNE14.6 kmh NNE 16.5 mph26.6 kmh 29.56 in1001.0 mb 0.00 in0.0 mm 0.00 in0.0 mm 0.00 in0.0 mm
11:15 AM 37.0°F2.8°C 24.8°F-4.0°C 61% 7.9 mph NE12.7 kmh NE 13.6 mph21.9 kmh 29.56 in1001.0 mb 0.00 in0.0 mm 0.00 in0.0 mm 0.00 in0.0 mm
11:30 AM 37.0°F2.8°C 24.4°F-4.2°C 60% 9.7 mph N15.6 kmh N 20.4 mph32.8 kmh 29.56 in1001.0 mb 0.00 in0.0 mm 0.00 in0.0 mm 0.00 in0.0 mm
11:45 AM 37.0°F2.8°C 24.4°F-4.2°C 60% 10.9 mph NNE17.5 kmh NNE 21.1 mph34.0 kmh 29.56 in1001.0 mb 0.00 in0.0 mm 0.00 in0.0 mm 0.00 in0.0 mm
12:00 PM 38.1°F3.4°C 25.4°F-3.7°C 60% 8.6 mph NE13.8 kmh NE 14.0 mph22.5 kmh 29.56 in1001.0 mb 0.00 in0.0 mm 0.00 in0.0 mm 0.00 in0.0 mm
12:15 PM 38.7°F3.7°C 25.6°F-3.6°C 59% 9.9 mph NE15.9 kmh NE 16.8 mph27.0 kmh 29.56 in1001.0 mb 0.00 in0.0 mm 0.00 in0.0 mm 0.00 in0.0 mm
12:30 PM 38.3°F3.5°C 24.8°F-4.0°C 58% 9.0 mph N14.5 kmh N 17.2 mph27.7 kmh 29.56 in1001.0 mb 0.00 in0.0 mm 0.00 in0.0 mm 0.00 in0.0 mm
12:45 PM 37.8°F3.2°C 24.3°F-4.3°C 58% 10.7 mph N17.2 kmh N 21.1 mph34.0 kmh 29.56 in1001.0 mb 0.00 in0.0 mm 0.00 in0.0 mm 0.00 in0.0 mm
01:00 PM 37.8°F3.2°C 24.7°F-4.1°C 59% 11.3 mph N18.2 kmh N 21.5 mph34.6 kmh 29.59 in1002.0 mb 0.00 in0.0 mm 0.00 in0.0 mm 0.00 in0.0 mm
01:15 PM 37.8°F3.2°C 24.3°F-4.3°C 58% 9.4 mph NNE15.1 kmh NNE 20.0 mph32.2 kmh 29.56 in1001.0 mb 0.00 in0.0 mm 0.00 in0.0 mm 0.00 in0.0 mm
01:30 PM 37.8°F3.2°C 24.7°F-4.1°C 59% 9.4 mph NNE15.1 kmh NNE 19.0 mph30.6 kmh 29.56 in1001.0 mb 0.00 in0.0 mm 0.00 in0.0 mm 0.00 in0.0 mm
01:45 PM 37.9°F3.3°C 24.9°F-3.9°C 59% 8.9 mph NNE14.3 kmh NNE 16.1 mph25.9 kmh 29.56 in1001.0 mb 0.00 in0.0 mm 0.00 in0.0 mm 0.00 in0.0 mm
02:00 PM 37.8°F3.2°C 24.3°F-4.3°C 58% 10.4 mph N16.7 kmh N 17.5 mph28.2 kmh 29.56 in1001.0 mb 0.00 in0.0 mm 0.00 in0.0 mm 0.00 in0.0 mm
02:15 PM 37.9°F3.3°C 24.5°F-4.2°C 58% 11.7 mph N18.8 kmh N 20.0 mph32.2 kmh 29.56 in1001.0 mb 0.00 in0.0 mm 0.00 in0.0 mm 0.00 in0.0 mm
02:30 PM 38.3°F3.5°C 24.8°F-4.0°C 58% 8.3 mph N13.4 kmh N 14.0 mph22.5 kmh 29.56 in1001.0 mb 0.00 in0.0 mm 0.00 in0.0 mm 0.00 in0.0 mm
02:45 PM 37.9°F3.3°C 24.5°F-4.2°C 58% 10.4 mph N16.7 kmh N 17.5 mph28.2 kmh 29.56 in1001.0 mb 0.00 in0.0 mm 0.00 in0.0 mm 0.00 in0.0 mm
03:00 PM 37.9°F3.3°C 24.5°F-4.2°C 58% 9.7 mph N15.6 kmh N 17.5 mph28.2 kmh 29.53 in1000.0 mb 0.00 in0.0 mm 0.00 in0.0 mm 0.00 in0.0 mm
03:15 PM 37.8°F3.2°C 24.3°F-4.3°C 58% 11.0 mph N17.7 kmh N 17.5 mph28.2 kmh 29.56 in1001.0 mb 0.00 in0.0 mm 0.00 in0.0 mm 0.00 in0.0 mm
03:30 PM 37.2°F2.9°C 23.8°F-4.6°C 58% 12.4 mph N20.0 kmh N 24.7 mph39.8 kmh 29.53 in1000.0 mb 0.00 in0.0 mm 0.00 in0.0 mm 0.00 in0.0 mm
03:45 PM 37.0°F2.8°C 24.0°F-4.4°C 59% 10.8 mph N17.4 kmh N 17.2 mph27.7 kmh 29.53 in1000.0 mb 0.00 in0.0 mm 0.00 in0.0 mm 0.00 in0.0 mm
04:00 PM 36.7°F2.6°C 24.1°F-4.4°C 60% 9.5 mph N15.3 kmh N 16.1 mph25.9 kmh 29.56 in1001.0 mb 0.00 in0.0 mm 0.00 in0.0 mm 0.00 in0.0 mm
04:15 PM 36.1°F2.3°C 23.6°F-4.7°C 60% 11.4 mph N18.3 kmh N 17.5 mph28.2 kmh 29.56 in1001.0 mb 0.00 in0.0 mm 0.00 in0.0 mm 0.00 in0.0 mm
04:30 PM 35.8°F2.1°C 23.6°F-4.7°C 61% 9.1 mph N14.6 kmh N 16.8 mph27.0 kmh 29.53 in1000.0 mb 0.00 in0.0 mm 0.00 in0.0 mm 0.00 in0.0 mm
04:45 PM 35.2°F1.8°C 23.1°F-4.9°C 61% 10.5 mph N16.9 kmh N 17.9 mph28.8 kmh 29.53 in1000.0 mb 0.00 in0.0 mm 0.00 in0.0 mm 0.00 in0.0 mm
05:00 PM 34.9°F1.6°C 23.2°F-4.9°C 62% 10.9 mph N17.5 kmh N 21.5 mph34.6 kmh 29.53 in1000.0 mb 0.00 in0.0 mm 0.00 in0.0 mm 0.00 in0.0 mm
05:15 PM 34.7°F1.5°C 23.4°F-4.8°C 63% 10.1 mph N16.3 kmh N 17.5 mph28.2 kmh 29.56 in1001.0 mb 0.00 in0.0 mm 0.00 in0.0 mm 0.00 in0.0 mm
05:30 PM 34.3°F1.3°C 23.0°F-5.0°C 63% 12.0 mph N19.3 kmh N 23.3 mph37.5 kmh 29.56 in1001.0 mb 0.00 in0.0 mm 0.00 in0.0 mm 0.00 in0.0 mm
05:45 PM 34.2°F1.2°C 23.2°F-4.9°C 64% 10.2 mph N16.4 kmh N 17.9 mph28.8 kmh 29.59 in1002.0 mb 0.00 in0.0 mm 0.00 in0.0 mm 0.00 in0.0 mm
06:00 PM 33.8°F1.0°C 23.3°F-4.8°C 65% 7.9 mph N12.7 kmh N 15.0 mph24.1 kmh 29.59 in1002.0 mb 0.00 in0.0 mm 0.00 in0.0 mm 0.00 in0.0 mm
06:15 PM 33.6°F0.9°C 23.1°F-4.9°C 65% 6.8 mph N10.9 kmh N 12.2 mph19.6 kmh 29.59 in1002.0 mb 0.00 in0.0 mm 0.00 in0.0 mm 0.00 in0.0 mm
06:30 PM 33.4°F0.8°C 23.3°F-4.8°C 66% 8.5 mph N13.7 kmh N 14.0 mph22.5 kmh 29.59 in1002.0 mb 0.00 in0.0 mm 0.00 in0.0 mm 0.00 in0.0 mm
06:45 PM 33.3°F0.7°C 23.1°F-4.9°C 66% 7.9 mph N12.7 kmh N 15.0 mph24.1 kmh 29.59 in1002.0 mb 0.00 in0.0 mm 0.00 in0.0 mm 0.00 in0.0 mm
07:00 PM 33.1°F0.6°C 23.3°F-4.8°C 67% 6.8 mph N10.9 kmh N 10.7 mph17.2 kmh 29.59 in1002.0 mb 0.00 in0.0 mm 0.00 in0.0 mm 0.00 in0.0 mm
07:15 PM 32.9°F0.5°C 23.1°F-4.9°C 67% 5.6 mph N9.0 kmh N 9.7 mph15.6 kmh 29.59 in1002.0 mb 0.00 in0.0 mm 0.00 in0.0 mm 0.00 in0.0 mm
07:30 PM 32.9°F0.5°C 23.1°F-4.9°C 67% 4.5 mph N7.2 kmh N 8.9 mph14.3 kmh 29.62 in1003.0 mb 0.00 in0.0 mm 0.00 in0.0 mm 0.00 in0.0 mm
07:45 PM 32.7°F0.4°C 23.0°F-5.0°C 67% 2.8 mph N4.5 kmh N 6.8 mph10.9 kmh 29.62 in1003.0 mb 0.00 in0.0 mm 0.00 in0.0 mm 0.00 in0.0 mm
08:00 PM 32.5°F0.3°C 22.8°F-5.1°C 67% 1.2 mph NNW1.9 kmh NNW 5.7 mph9.2 kmh 29.62 in1003.0 mb 0.00 in0.0 mm 0.00 in0.0 mm 0.00 in0.0 mm
08:15 PM 32.4°F0.2°C 22.6°F-5.2°C 67% 0.2 mph W0.3 kmh W 3.9 mph6.3 kmh 29.62 in1003.0 mb 0.00 in0.0 mm 0.00 in0.0 mm 0.00 in0.0 mm
08:30 PM 32.0°F0.0°C 22.6°F-5.2°C 68% 0.7 mph NW1.1 kmh NW 4.7 mph7.6 kmh 29.62 in1003.0 mb 0.00 in0.0 mm 0.00 in0.0 mm 0.00 in0.0 mm
08:45 PM 32.0°F0.0°C 22.6°F-5.2°C 68% 1.9 mph W3.1 kmh W 4.7 mph7.6 kmh 29.62 in1003.0 mb 0.00 in0.0 mm 0.00 in0.0 mm 0.00 in0.0 mm
09:00 PM 31.8°F-0.1°C 22.8°F-5.1°C 69% 1.0 mph W1.6 kmh W 4.3 mph6.9 kmh 29.62 in1003.0 mb 0.00 in0.0 mm 0.00 in0.0 mm 0.00 in0.0 mm
09:15 PM 31.6°F-0.2°C 22.6°F-5.2°C 69% 0.7 mph W1.1 kmh W 4.3 mph6.9 kmh 29.62 in1003.0 mb 0.00 in0.0 mm 0.00 in0.0 mm 0.00 in0.0 mm
09:30 PM 31.5°F-0.3°C 22.5°F-5.3°C 69% 0.5 mph W0.8 kmh W 4.3 mph6.9 kmh 29.62 in1003.0 mb 0.00 in0.0 mm 0.00 in0.0 mm 0.00 in0.0 mm
09:45 PM 31.3°F-0.4°C 22.3°F-5.4°C 69% 0.3 mph W0.5 kmh W 3.9 mph6.3 kmh 29.62 in1003.0 mb 0.00 in0.0 mm 0.00 in0.0 mm 0.00 in0.0 mm
10:00 PM 31.1°F-0.5°C 22.1°F-5.5°C 69% 1.3 mph W2.1 kmh W 5.4 mph8.7 kmh 29.62 in1003.0 mb 0.00 in0.0 mm 0.00 in0.0 mm 0.00 in0.0 mm
10:15 PM 31.1°F-0.5°C 22.5°F-5.3°C 70% 0.7 mph W1.1 kmh W 3.2 mph5.1 kmh 29.62 in1003.0 mb 0.00 in0.0 mm 0.00 in0.0 mm 0.00 in0.0 mm
10:30 PM 30.9°F-0.6°C 22.3°F-5.4°C 70% 1.1 mph W1.8 kmh W 3.2 mph5.1 kmh 29.62 in1003.0 mb 0.00 in0.0 mm 0.00 in0.0 mm 0.00 in0.0 mm
10:45 PM 30.6°F-0.8°C 21.9°F-5.6°C 70% 2.0 mph W3.2 kmh W 2.5 mph4.0 kmh 29.62 in1003.0 mb 0.00 in0.0 mm 0.00 in0.0 mm 0.00 in0.0 mm
11:00 PM 30.2°F-1.0°C 21.6°F-5.8°C 70% 2.0 mph W3.2 kmh W 2.5 mph4.0 kmh 29.65 in1004.1 mb 0.00 in0.0 mm 0.00 in0.0 mm 0.00 in0.0 mm
11:15 PM 30.2°F-1.0°C 21.9°F-5.6°C 71% 2.0 mph W3.2 kmh W 2.5 mph4.0 kmh 29.62 in1003.0 mb 0.00 in0.0 mm 0.00 in0.0 mm 0.00 in0.0 mm
11:30 PM 30.2°F-1.0°C 21.9°F-5.6°C 71% 2.0 mph W3.2 kmh W 2.5 mph4.0 kmh 29.62 in1003.0 mb 0.00 in0.0 mm 0.00 in0.0 mm 0.00 in0.0 mm
11:45 PM 29.8°F-1.2°C 21.6°F-5.8°C 71% 2.0 mph W3.2 kmh W 2.5 mph4.0 kmh 29.62 in1003.0 mb 0.00 in0.0 mm 0.00 in0.0 mm 0.00 in0.0 mm